createdAt,value
2023-03-21T00:02:25.802Z,98921.78
2023-03-21T00:05:15.812Z,98920.22
2023-03-21T00:08:02.690Z,98923.00
2023-03-21T00:10:55.065Z,98915.88
2023-03-21T00:13:43.515Z,98912.75
2023-03-21T00:16:32.291Z,98917.06
2023-03-21T00:19:24.926Z,98916.31
2023-03-21T00:22:10.023Z,98920.31
2023-03-21T00:24:55.493Z,98921.09
2023-03-21T00:28:01.195Z,98919.50
2023-03-21T00:30:46.359Z,98921.50
2023-03-21T00:33:31.818Z,98923.50
2023-03-21T00:36:17.506Z,98923.50
2023-03-21T00:39:04.224Z,98929.50
2023-03-21T00:41:51.747Z,98934.28
2023-03-21T00:44:37.028Z,98930.72
2023-03-21T00:47:24.127Z,98930.72
2023-03-21T00:50:11.982Z,98927.94
2023-03-21T00:52:57.480Z,98925.16
2023-03-21T00:55:43.256Z,98913.25
2023-03-21T00:58:28.479Z,98918.81
2023-03-21T01:01:13.843Z,98922.78
2023-03-21T01:04:07.640Z,98924.34
2023-03-21T01:06:54.565Z,98924.34
2023-03-21T01:09:40.187Z,98920.44
2023-03-21T01:12:25.524Z,98919.22
2023-03-21T01:15:11.292Z,98928.34
2023-03-21T01:17:56.379Z,98918.44
2023-03-21T01:20:42.852Z,98928.41
2023-03-21T01:23:29.436Z,98925.22
2023-03-21T01:26:15.388Z,98927.97
2023-03-21T01:29:02.406Z,98920.88
2023-03-21T01:31:47.965Z,98930.75
2023-03-21T01:34:33.495Z,98934.78
2023-03-21T01:37:19.964Z,98924.84
2023-03-21T01:40:12.739Z,98922.06
2023-03-21T01:42:59.295Z,98935.19
2023-03-21T01:46:08.957Z,98930.41
2023-03-21T01:49:18.346Z,98926.84
2023-03-21T01:52:15.339Z,98931.63
2023-03-21T01:55:11.768Z,98920.94
2023-03-21T01:58:06.696Z,98918.16
2023-03-21T02:01:12.922Z,98920.53
2023-03-21T02:04:05.012Z,98918.94
2023-03-21T02:07:17.765Z,98907.41
2023-03-21T02:10:13.964Z,98905.81
2023-03-21T02:13:09.542Z,98905.81
2023-03-21T02:16:13.140Z,98910.59
2023-03-21T02:19:10.788Z,98910.59
2023-03-21T02:22:12.144Z,98902.28
2023-03-21T02:25:31.726Z,98907.81
2023-03-21T02:28:27.954Z,98907.06
2023-03-21T02:31:36.376Z,98900.72
2023-03-21T02:34:27.825Z,98907.06
2023-03-21T02:37:38.299Z,98895.16
2023-03-21T02:40:30.838Z,98900.72
2023-03-21T02:43:38.423Z,98907.06
2023-03-21T02:46:45.478Z,98899.50
2023-03-21T02:49:49.624Z,98896.34
2023-03-21T02:52:39.537Z,98898.28
2023-03-21T02:55:32.085Z,98895.16
2023-03-21T02:58:23.625Z,98895.94
2023-03-21T03:01:13.879Z,98891.16
2023-03-21T03:04:22.139Z,98893.16
2023-03-21T03:07:11.378Z,98884.03
2023-03-21T03:10:08.001Z,98884.03
2023-03-21T03:13:06.637Z,98887.59
2023-03-21T03:16:21.875Z,98878.50
2023-03-21T03:19:16.015Z,98883.59
2023-03-21T03:22:10.722Z,98868.94
2023-03-21T03:25:16.322Z,98870.94
2023-03-21T03:28:11.550Z,98874.47
2023-03-21T03:31:08.652Z,98876.06
2023-03-21T03:34:12.810Z,98878.84
2023-03-21T03:37:04.576Z,98887.19
2023-03-21T03:40:02.139Z,98887.59
2023-03-21T03:42:54.157Z,98884.81
2023-03-21T03:45:56.777Z,98881.28
2023-03-21T03:49:17.149Z,98888.03
2023-03-21T03:52:13.944Z,98889.59
2023-03-21T03:55:04.052Z,98884.03
2023-03-21T03:57:55.602Z,98888.81
2023-03-21T04:00:41.887Z,98892.38
2023-03-21T04:03:28.205Z,98893.59
2023-03-21T04:06:14.518Z,98883.69
2023-03-21T04:09:03.419Z,98889.25
2023-03-21T04:11:51.225Z,98893.59
2023-03-21T04:14:44.408Z,98890.81
2023-03-21T04:17:33.062Z,98894.81
2023-03-21T04:20:26.719Z,98897.59
2023-03-21T04:23:20.516Z,98895.59
2023-03-21T04:26:07.803Z,98898.78
2023-03-21T04:28:57.110Z,98891.25
2023-03-21T04:31:42.283Z,98897.59
2023-03-21T04:34:30.809Z,98890.44
2023-03-21T04:37:23.443Z,98895.22
2023-03-21T04:40:11.185Z,98891.69
2023-03-21T04:42:56.961Z,98896.00
2023-03-21T04:45:42.106Z,98895.22
2023-03-21T04:48:27.938Z,98892.44
2023-03-21T04:51:16.104Z,98889.59
2023-03-21T04:54:01.651Z,98894.28
2023-03-21T04:56:46.950Z,98891.50
2023-03-21T04:59:32.310Z,98893.50
2023-03-21T05:02:18.214Z,98895.78
2023-03-21T05:05:04.480Z,98889.44
2023-03-21T05:07:49.748Z,98888.22
2023-03-21T05:10:35.201Z,98895.72
2023-03-21T05:13:20.846Z,98893.28
2023-03-21T05:16:08.348Z,98888.44
2023-03-21T05:18:55.586Z,98892.25
2023-03-21T05:21:42.058Z,98885.72
2023-03-21T05:24:50.198Z,98891.19
2023-03-21T05:27:54.592Z,98888.25
2023-03-21T05:30:46.303Z,98881.72
2023-03-21T05:33:32.655Z,98888.75
2023-03-21T05:36:19.407Z,98895.00
2023-03-21T05:39:06.152Z,98892.91
2023-03-21T05:41:54.709Z,98886.03
2023-03-21T05:44:42.878Z,98886.75
2023-03-21T05:47:29.987Z,98879.50
2023-03-21T05:50:17.816Z,98885.31
2023-03-21T05:53:11.149Z,98883.66
2023-03-21T05:55:56.492Z,98883.66
2023-03-21T05:58:58.548Z,98878.88
2023-03-21T06:01:44.589Z,98892.00
2023-03-21T06:04:33.880Z,98882.09
2023-03-21T06:07:19.328Z,98886.44
2023-03-21T06:10:04.796Z,98888.44
2023-03-21T06:12:50.592Z,98886.88
2023-03-21T06:16:02.235Z,98905.25
2023-03-21T06:18:47.875Z,98899.69
2023-03-21T06:21:48.574Z,98897.75
2023-03-21T06:24:34.248Z,98898.97
2023-03-21T06:27:19.993Z,98897.88
2023-03-21T06:30:12.543Z,98901.50
2023-03-21T06:33:25.454Z,98911.50
2023-03-21T06:36:10.864Z,98909.16
2023-03-21T06:38:57.078Z,98904.03
2023-03-21T06:41:44.012Z,98905.25
2023-03-21T06:44:29.327Z,98908.13
2023-03-21T06:47:21.616Z,98916.56
2023-03-21T06:50:09.445Z,98919.34
2023-03-21T06:53:00.326Z,98919.00
2023-03-21T06:55:50.793Z,98913.09
2023-03-21T06:58:36.632Z,98918.28
2023-03-21T07:01:22.630Z,98918.75
2023-03-21T07:04:18.531Z,98921.19
2023-03-21T07:07:04.196Z,98918.81
2023-03-21T07:09:49.648Z,98929.19
2023-03-21T07:12:36.050Z,98918.13
2023-03-21T07:15:47.822Z,98915.34
2023-03-21T07:18:33.850Z,98918.22
2023-03-21T07:21:19.165Z,98927.78
2023-03-21T07:24:04.391Z,98925.44
2023-03-21T07:26:49.656Z,98926.66
2023-03-21T07:29:34.893Z,98923.09
2023-03-21T07:32:20.510Z,98917.19
2023-03-21T07:35:08.768Z,98917.59
2023-03-21T07:37:54.062Z,98928.72
2023-03-21T07:40:39.588Z,98927.94
2023-03-21T07:43:25.181Z,98924.75
2023-03-21T07:46:11.490Z,98932.72
2023-03-21T07:48:56.780Z,98932.72
2023-03-21T07:51:42.448Z,98925.59
2023-03-21T07:54:28.769Z,98912.94
2023-03-21T07:57:14.329Z,98924.03
2023-03-21T07:59:59.549Z,98926.81
2023-03-21T08:02:44.944Z,98917.72
2023-03-21T08:05:34.685Z,98923.28
2023-03-21T08:08:19.997Z,98912.56
2023-03-21T08:11:06.313Z,98912.56
2023-03-21T08:13:51.700Z,98923.69
2023-03-21T08:16:37.194Z,98922.09
2023-03-21T08:19:22.534Z,98926.47
2023-03-21T08:22:07.612Z,98917.34
2023-03-21T08:24:52.923Z,98924.13
2023-03-21T08:27:38.225Z,98928.13
2023-03-21T08:30:26.418Z,98927.66
2023-03-21T08:33:13.542Z,98923.34
2023-03-21T08:36:00.808Z,98921.78
2023-03-21T08:38:48.495Z,98932.91
2023-03-21T08:41:35.721Z,98926.53
2023-03-21T08:44:22.119Z,98925.34
2023-03-21T08:47:08.213Z,98927.00
2023-03-21T08:49:53.400Z,98926.53
2023-03-21T08:52:38.704Z,98913.88
2023-03-21T08:55:23.893Z,98917.06
2023-03-21T08:58:09.111Z,98917.44
2023-03-21T09:00:54.226Z,98909.50
2023-03-21T09:03:39.642Z,98914.66
2023-03-21T09:06:27.019Z,98907.97
2023-03-21T09:09:12.685Z,98915.88
2023-03-21T09:11:58.738Z,98911.53
2023-03-21T09:14:43.914Z,98916.31
2023-03-21T09:17:29.704Z,98913.53
2023-03-21T09:20:22.677Z,98917.84
2023-03-21T09:23:08.151Z,98907.53
2023-03-21T09:25:53.599Z,98915.88
2023-03-21T09:28:39.262Z,98908.75
2023-03-21T09:31:25.887Z,98911.53
2023-03-21T09:34:11.160Z,98898.06
2023-03-21T09:36:57.038Z,98900.41
2023-03-21T09:39:43.619Z,98889.28
2023-03-21T09:42:48.219Z,98896.84
2023-03-21T09:45:43.716Z,98896.06
2023-03-21T09:48:56.045Z,98898.84
2023-03-21T09:51:49.277Z,98895.72
2023-03-21T09:54:43.037Z,98897.28
2023-03-21T09:57:40.023Z,98898.06
2023-03-21T10:00:32.455Z,98891.72
2023-03-21T10:03:29.041Z,98886.97
2023-03-21T10:06:16.494Z,98884.59
2023-03-21T10:09:24.459Z,98881.81
2023-03-21T10:12:20.045Z,98886.16
2023-03-21T10:15:06.128Z,98877.47
2023-03-21T10:18:05.345Z,98868.69
2023-03-21T10:20:51.900Z,98875.03
2023-03-21T10:23:37.611Z,98866.69
2023-03-21T10:26:28.112Z,98865.16
2023-03-21T10:29:15.000Z,98856.81
2023-03-21T10:32:00.722Z,98860.78
2023-03-21T10:34:50.700Z,98856.81
2023-03-21T10:37:36.419Z,98859.59
2023-03-21T10:40:21.679Z,98845.69
2023-03-21T10:43:35.300Z,98854.03
2023-03-21T10:46:21.763Z,98858.38
2023-03-21T10:49:08.236Z,98850.03
2023-03-21T10:52:02.433Z,98850.03
2023-03-21T10:54:49.382Z,98854.03
2023-03-21T10:57:38.037Z,98845.69
2023-03-21T11:00:29.128Z,98842.13
2023-03-21T11:03:36.426Z,98844.91
2023-03-21T11:06:21.817Z,98836.59
2023-03-21T11:09:13.291Z,98843.34
2023-03-21T11:12:10.041Z,98845.69
2023-03-21T11:14:56.192Z,98842.91
2023-03-21T11:17:41.918Z,98833.00
2023-03-21T11:20:31.405Z,98830.22
2023-03-21T11:23:20.442Z,98830.22
2023-03-21T11:26:11.899Z,98824.66
2023-03-21T11:28:58.133Z,98819.91
2023-03-21T11:31:44.861Z,98826.66
2023-03-21T11:34:57.795Z,98821.88
2023-03-21T11:37:51.076Z,98812.00
2023-03-21T11:40:39.548Z,98824.31
2023-03-21T11:43:31.987Z,98818.75
2023-03-21T11:46:23.939Z,98810.84
2023-03-21T11:49:10.342Z,98806.06
2023-03-21T11:51:58.920Z,98803.66
2023-03-21T11:55:00.840Z,98804.84
2023-03-21T11:58:05.315Z,98800.88
2023-03-21T12:01:18.083Z,98794.91
2023-03-21T12:04:31.822Z,98798.88
2023-03-21T12:07:32.574Z,98783.78
2023-03-21T12:10:33.420Z,98790.53
2023-03-21T12:13:43.818Z,98781.00
2023-03-21T12:16:44.054Z,98778.22
2023-03-21T12:19:57.246Z,98772.66
2023-03-21T12:23:01.050Z,98771.84
2023-03-21T12:25:56.672Z,98759.97
2023-03-21T12:29:24.229Z,98766.28
2023-03-21T12:32:21.758Z,98767.88
2023-03-21T12:35:33.583Z,98762.31
2023-03-21T12:38:25.614Z,98755.97
2023-03-21T12:41:25.481Z,98758.31
2023-03-21T12:44:17.504Z,98754.31
2023-03-21T12:47:08.886Z,98743.22
2023-03-21T12:50:06.755Z,98738.44
2023-03-21T12:53:11.458Z,98733.63
2023-03-21T12:56:01.702Z,98735.22
2023-03-21T12:59:08.648Z,98728.09
2023-03-21T13:02:01.462Z,98726.06
2023-03-21T13:05:18.110Z,98727.66
2023-03-21T13:08:39.055Z,98723.28
2023-03-21T13:11:27.802Z,98720.53
2023-03-21T13:14:30.817Z,98711.75
2023-03-21T13:17:27.325Z,98709.41
2023-03-21T13:20:38.174Z,98701.88
2023-03-21T13:23:25.997Z,98701.88
2023-03-21T13:26:12.528Z,98699.84
2023-03-21T13:28:59.009Z,98688.75
2023-03-21T13:31:52.011Z,98685.53
2023-03-21T13:34:40.212Z,98685.97
2023-03-21T13:37:31.139Z,98686.75
2023-03-21T13:40:37.697Z,98686.75
2023-03-21T13:43:51.307Z,98684.72
2023-03-21T13:46:53.685Z,98681.19
2023-03-21T13:49:39.973Z,98674.41
2023-03-21T13:52:27.975Z,98676.41
2023-03-21T13:55:20.438Z,98670.06
2023-03-21T13:58:40.677Z,98672.84
2023-03-21T14:01:36.056Z,98666.09
2023-03-21T14:04:31.983Z,98666.09
2023-03-21T14:07:30.086Z,98675.63
2023-03-21T14:10:28.048Z,98664.50
2023-03-21T14:13:19.223Z,98652.59
2023-03-21T14:16:14.174Z,98650.59
2023-03-21T14:19:03.913Z,98646.28
2023-03-21T14:21:53.467Z,98642.28
2023-03-21T14:24:41.209Z,98642.69
2023-03-21T14:27:31.056Z,98631.59
2023-03-21T14:30:24.476Z,98632.38
2023-03-21T14:33:15.880Z,98626.03
2023-03-21T14:36:09.018Z,98628.03
2023-03-21T14:38:56.177Z,98622.47
2023-03-21T14:41:55.836Z,98616.91
2023-03-21T14:44:58.669Z,98618.91
2023-03-21T14:48:00.019Z,98611.34
2023-03-21T14:50:48.486Z,98616.13
2023-03-21T14:53:39.944Z,98614.13
2023-03-21T14:56:25.934Z,98605.03
2023-03-21T14:59:15.874Z,98601.81
2023-03-21T15:02:04.826Z,98597.78
2023-03-21T15:04:53.313Z,98599.81
2023-03-21T15:07:38.609Z,98597.78
2023-03-21T15:10:26.270Z,98592.25
2023-03-21T15:13:18.186Z,98591.91
2023-03-21T15:16:04.523Z,98592.66
2023-03-21T15:18:50.824Z,98585.13
2023-03-21T15:21:41.993Z,98584.78
2023-03-21T15:24:31.903Z,98598.22
2023-03-21T15:27:19.598Z,98597.13
2023-03-21T15:30:06.168Z,98587.56
2023-03-21T15:32:53.695Z,98588.56
2023-03-21T15:35:55.697Z,98584.94
2023-03-21T15:38:45.191Z,98586.47
2023-03-21T15:41:32.241Z,98583.16
2023-03-21T15:44:21.757Z,98583.03
2023-03-21T15:47:13.886Z,98579.06
2023-03-21T15:50:02.472Z,98578.50
2023-03-21T15:52:50.921Z,98580.38
2023-03-21T15:55:48.091Z,98571.94
2023-03-21T15:58:48.416Z,98572.63
2023-03-21T16:01:38.969Z,98574.84
2023-03-21T16:04:24.761Z,98577.06
2023-03-21T16:07:17.312Z,98569.38
2023-03-21T16:10:04.900Z,98564.50
2023-03-21T16:12:50.334Z,98563.59
2023-03-21T16:15:35.828Z,98565.03
2023-03-21T16:18:21.276Z,98567.72
2023-03-21T16:21:06.912Z,98572.03
2023-03-21T16:23:52.911Z,98567.63
2023-03-21T16:26:45.200Z,98575.97
2023-03-21T16:29:30.477Z,98571.84
2023-03-21T16:32:17.536Z,98570.59
2023-03-21T16:35:02.929Z,98566.72
2023-03-21T16:37:48.387Z,98562.38
2023-03-21T16:40:37.332Z,98569.94
2023-03-21T16:43:22.960Z,98569.94
2023-03-21T16:46:27.013Z,98567.16
2023-03-21T16:49:24.576Z,98571.03
2023-03-21T16:52:12.016Z,98574.09
2023-03-21T16:54:57.512Z,98575.63
2023-03-21T16:57:43.336Z,98576.44
2023-03-21T17:00:30.770Z,98577.53
2023-03-21T17:03:19.149Z,98583.09
2023-03-21T17:06:06.029Z,98578.66
2023-03-21T17:08:52.937Z,98580.66
2023-03-21T17:11:41.702Z,98576.19
2023-03-21T17:14:27.234Z,98574.19
2023-03-21T17:17:17.267Z,98576.19
2023-03-21T17:20:16.225Z,98572.97
2023-03-21T17:23:01.681Z,98572.16
2023-03-21T17:25:47.001Z,98572.16
2023-03-21T17:28:32.699Z,98565.06
2023-03-21T17:31:22.955Z,98570.06
2023-03-21T17:34:09.699Z,98574.53
2023-03-21T17:36:55.281Z,98572.06
2023-03-21T17:39:42.987Z,98569.28
2023-03-21T17:42:28.155Z,98572.06
2023-03-21T17:45:14.903Z,98576.06
2023-03-21T17:48:00.409Z,98570.50
2023-03-21T17:50:46.147Z,98566.50
2023-03-21T17:53:31.521Z,98572.06
2023-03-21T17:56:26.279Z,98573.19
2023-03-21T17:59:13.925Z,98561.28
2023-03-21T18:01:59.534Z,98558.47
2023-03-21T18:04:45.007Z,98558.81
2023-03-21T18:08:02.018Z,98566.25
2023-03-21T18:10:35.814Z,98557.47
2023-03-21T18:13:21.451Z,98565.34
2023-03-21T18:16:08.327Z,98559.78
2023-03-21T18:18:56.665Z,98562.91
2023-03-21T18:21:45.860Z,98564.13
2023-03-21T18:24:31.493Z,98573.50
2023-03-21T18:27:17.512Z,98564.81
2023-03-21T18:30:28.575Z,98563.13
2023-03-21T18:33:12.292Z,98568.25
2023-03-21T18:35:59.889Z,98573.34
2023-03-21T18:38:46.075Z,98573.81
2023-03-21T18:41:32.170Z,98574.59
2023-03-21T18:44:21.295Z,98569.34
2023-03-21T18:47:09.512Z,98569.78
2023-03-21T18:50:13.032Z,98572.59
2023-03-21T18:52:59.188Z,98575.69
2023-03-21T18:55:46.782Z,98570.91
2023-03-21T18:58:33.317Z,98574.78
2023-03-21T19:01:18.767Z,98573.69
2023-03-21T19:04:32.159Z,98572.81
2023-03-21T19:07:10.533Z,98576.03
2023-03-21T19:10:15.994Z,98574.47
2023-03-21T19:13:02.115Z,98588.72
2023-03-21T19:15:49.590Z,98584.72
2023-03-21T19:18:54.910Z,98577.91
2023-03-21T19:21:40.669Z,98575.13
2023-03-21T19:24:28.564Z,98580.69
2023-03-21T19:27:14.785Z,98579.16
2023-03-21T19:30:13.869Z,98587.03
2023-03-21T19:33:00.159Z,98591.06
2023-03-21T19:35:46.546Z,98577.91
2023-03-21T19:38:32.504Z,98583.59
2023-03-21T19:41:20.232Z,98578.91
2023-03-21T19:44:05.961Z,98581.72
2023-03-21T19:46:51.388Z,98582.63
2023-03-21T19:50:27.333Z,98575.63
2023-03-21T19:52:46.170Z,98573.25
2023-03-21T19:55:31.613Z,98587.31
2023-03-21T19:58:21.330Z,98581.09
2023-03-21T20:01:09.466Z,98577.50
2023-03-21T20:03:55.406Z,98574.06
2023-03-21T20:06:41.141Z,98578.97
2023-03-21T20:12:33.213Z,98578.75
2023-03-21T20:15:26.706Z,98576.09
2023-03-21T20:18:14.296Z,98576.16
2023-03-21T20:21:02.002Z,98582.16
2023-03-21T20:23:51.054Z,98583.84
2023-03-21T20:26:49.353Z,98583.97
2023-03-21T20:30:35.244Z,98584.41
2023-03-21T20:33:22.987Z,98582.53
2023-03-21T20:36:38.304Z,98578.31
2023-03-21T20:39:29.930Z,98579.94
2023-03-21T20:42:15.712Z,98573.28
2023-03-21T20:45:07.923Z,98586.84
2023-03-21T20:47:55.575Z,98579.75
2023-03-21T20:50:51.863Z,98581.41
2023-03-21T20:53:50.193Z,98585.41
2023-03-21T20:56:48.907Z,98582.63
2023-03-21T20:59:41.830Z,98586.75
2023-03-21T21:02:28.017Z,98582.41
2023-03-21T21:05:38.577Z,98577.72
2023-03-21T21:08:37.992Z,98586.53
2023-03-21T21:12:05.244Z,98588.19
2023-03-21T21:14:47.092Z,98591.75
2023-03-21T21:18:05.356Z,98585.84
2023-03-21T21:20:58.883Z,98577.94
2023-03-21T21:23:45.066Z,98578.41
2023-03-21T21:26:34.523Z,98580.84
2023-03-21T21:29:27.470Z,98590.38
2023-03-21T21:32:25.050Z,98595.19
2023-03-21T21:35:17.446Z,98596.06
2023-03-21T21:38:29.010Z,98593.72
2023-03-21T21:41:24.234Z,98598.94
2023-03-21T21:44:10.135Z,98598.19
2023-03-21T21:46:55.470Z,98601.38
2023-03-21T21:49:41.566Z,98603.81
2023-03-21T21:52:27.005Z,98603.06
2023-03-21T21:55:13.265Z,98607.03
2023-03-21T21:57:59.340Z,98610.28
2023-03-21T22:00:46.247Z,98602.38
2023-03-21T22:03:41.100Z,98610.72
2023-03-21T22:06:27.233Z,98602.81
2023-03-21T22:09:13.987Z,98612.72
2023-03-21T22:11:59.749Z,98608.38
2023-03-21T22:14:45.349Z,98605.59
2023-03-21T22:17:31.346Z,98604.81
2023-03-21T22:20:19.489Z,98605.59
2023-03-21T22:23:04.934Z,98610.38
2023-03-21T22:25:51.784Z,98612.72
2023-03-21T22:28:40.151Z,98605.59
2023-03-21T22:31:26.460Z,98605.59
2023-03-21T22:34:11.720Z,98602.03
2023-03-21T22:36:57.690Z,98608.38
2023-03-21T22:39:42.992Z,98605.59
2023-03-21T22:42:28.316Z,98611.16
2023-03-21T22:45:14.608Z,98601.59
2023-03-21T22:48:00.450Z,98602.03
2023-03-21T22:50:46.226Z,98600.81
2023-03-21T22:53:31.812Z,98606.38
2023-03-21T22:56:17.044Z,98607.16
2023-03-21T22:59:02.302Z,98601.59
2023-03-21T23:01:47.614Z,98596.81
2023-03-21T23:04:32.878Z,98590.47
2023-03-21T23:07:18.178Z,98596.03
2023-03-21T23:10:05.162Z,98584.94
2023-03-21T23:12:51.809Z,98578.59
2023-03-21T23:15:38.643Z,98580.13
2023-03-21T23:18:23.915Z,98577.34
2023-03-21T23:21:13.406Z,98575.81
2023-03-21T23:23:58.849Z,98580.91
2023-03-21T23:26:44.070Z,98578.59
2023-03-21T23:29:32.086Z,98582.16
2023-03-21T23:32:17.866Z,98571.03
2023-03-21T23:35:03.778Z,98574.56
2023-03-21T23:37:52.645Z,98579.38
2023-03-21T23:40:41.647Z,98576.59
2023-03-21T23:43:28.252Z,98575.81
2023-03-21T23:46:15.502Z,98579.38
2023-03-21T23:49:01.041Z,98580.13
2023-03-21T23:51:47.178Z,98582.16
2023-03-21T23:54:32.318Z,98580.56
2023-03-21T23:57:18.066Z,98582.91
